気象予報士の航空気象 温暖と寒冷の狭間

*All archives   *Admin

2009.05.17 (Sun)

温暖と寒冷の狭間

 今日はとても南風が強く、雨が激しく振ったり、家の中にいても風音にびっくりしたり、夕方に外に出てみると、低い黒いべったりとした雲、いわゆる乱層雲が、南よりの風に乗ってすごい速さで流れているのを見ました。


下図の天気図を見ると、南よりの強風に低い乱層雲にも納得がいきました。


ASAS17MAY0906Z.jpg
地上解析図 17日午後3時


ASAS17MAY0906Z拡大
地上解析図 17日午後3時 拡大図



羽田と成田は風にも泣かされていますね。


成田空港
170600Z 18013KT 9999 -SHRA FEW020 BKN040 19/16 Q1006
      WS R16R WS R16L BECMG 18017G29KT RMK 2CU020 7SC040
      A2971

午後3時 南風 小雨 気温19度 露点16度
      ウインドシアーあり 15メートルの強風予報



171400Z 20020G33KT 9999 FEW025 SCT120 22/18 Q0999 NOSIG

午後11時 南西風10メートル強風時17メートル 気温22度 露点18度




 なんと、成田では夜のほうが気温が高い。きっと明日は晴れるからかなり暑くなるのでは!?




羽田空港
170600Z 18020KT 9999 FEW020 BKN026 20/16 Q1005 RMK 2CU020 7SC026
      A2969

午後3時 南風10メートル 曇り 気温20度 露点16度 雲底高度800メートル




171100Z 20024G34KT 9999 FEW006 SCT009 BKN010 22/19 Q1000
      RMK 1ST006 3ST009 5ST010 A2956

午後8時 南西風12メートル 強風時17メートル 曇り 気温22度 露点19度 雲底高度300メートル




171400Z 20020G36KT 9999 SCT012 BKN050 21/18 Q0998

午後11時 南西風10メートル強風時18メートル 曇り 気温21度 露点18度



ブログランキングに参加しています。
にほんブログ村 環境ブログ 天気・気象学へ
にほんブログ村
応援クリックをおねがします。


以下、アフィリエイトサイトです。






スポンサーサイト
23:50  |  気象・天気  |  TB(0)  |  CM(0)  |  EDIT  |  Top↑

コメントを投稿する


 管理者だけに表示  (非公開コメント投稿可能)

▲PageTop

この記事のトラックバックURL

→http://weathereucalyptus.blog115.fc2.com/tb.php/115-8743388c
この記事にトラックバックする(FC2ブログユーザー)

この記事へのトラックバック

▲PageTop

 | BLOGTOP |